createdAt,value
2018-09-09T00:11:37.392Z,94028.20
2018-09-09T00:26:41.281Z,94023.95
2018-09-09T00:41:45.114Z,94029.79
2018-09-09T00:56:48.856Z,93962.16
2018-09-09T01:11:52.691Z,94019.46
2018-09-09T01:26:56.455Z,94018.73
2018-09-09T01:42:00.209Z,94025.06
2018-09-09T01:57:03.945Z,94022.32
2018-09-09T02:12:07.694Z,94023.58
2018-09-09T02:27:11.490Z,94023.66
2018-09-09T02:42:15.221Z,94024.25
2018-09-09T02:57:19.100Z,94026.23
2018-09-09T03:12:22.911Z,94024.37
2018-09-09T03:27:26.730Z,94019.58
2018-09-09T03:42:30.496Z,94033.86
2018-09-09T03:57:35.399Z,94030.29
2018-09-09T04:12:39.188Z,94039.92
2018-09-09T04:27:42.927Z,94059.59
2018-09-09T04:42:46.674Z,94059.67
2018-09-09T04:57:50.420Z,94073.59
2018-09-09T05:12:54.151Z,94075.11
2018-09-09T05:27:57.930Z,94092.11
2018-09-09T05:43:01.690Z,94090.61
2018-09-09T05:58:06.099Z,94096.66
2018-09-09T06:13:09.884Z,94087.75
2018-09-09T06:28:13.796Z,94098.01
2018-09-09T06:43:17.538Z,94112.38
2018-09-09T06:58:21.279Z,94106.91
2018-09-09T07:13:25.027Z,94107.56
2018-09-09T07:28:30.598Z,94105.10
2018-09-09T07:43:34.344Z,94106.88
2018-09-09T07:58:38.100Z,94101.80
2018-09-09T08:13:41.852Z,94094.97
2018-09-09T08:28:45.602Z,94105.55
2018-09-09T08:43:49.364Z,94090.09
2018-09-09T08:58:53.159Z,94073.36
2018-09-09T09:13:56.925Z,94068.32
2018-09-09T09:29:00.741Z,94061.88
2018-09-09T09:44:05.306Z,94048.27
2018-09-09T09:59:09.348Z,94038.78
2018-09-09T10:14:13.148Z,94024.14
2018-09-09T10:29:16.926Z,94019.13
2018-09-09T10:44:20.738Z,93997.20
2018-09-09T10:59:24.506Z,93997.01
2018-09-09T11:14:28.547Z,93962.09
2018-09-09T11:29:32.469Z,93969.80
2018-09-09T11:44:36.312Z,93992.36
2018-09-09T11:59:40.090Z,93989.14
2018-09-09T12:14:44.693Z,93991.81
2018-09-09T12:29:48.651Z,93957.98
2018-09-09T13:00:48.519Z,93987.41
2018-09-09T13:15:52.873Z,93998.64
2018-09-09T13:30:56.784Z,93986.73
2018-09-09T13:46:00.795Z,94024.45
2018-09-09T14:01:04.736Z,94019.23
2018-09-09T14:16:09.673Z,93997.45
2018-09-09T14:31:13.636Z,93994.05
2018-09-09T14:46:19.375Z,94007.15
2018-09-09T15:01:23.316Z,94005.84
2018-09-09T15:16:27.323Z,93991.47
2018-09-09T15:31:31.643Z,94009.70
2018-09-09T15:46:35.929Z,94004.34
2018-09-09T16:01:40.270Z,94019.64
2018-09-09T16:16:44.290Z,94034.47
2018-09-09T16:31:48.304Z,94034.49
2018-09-09T16:46:52.360Z,94044.62
2018-09-09T17:01:56.279Z,94048.72
2018-09-09T17:17:00.385Z,94064.94
2018-09-09T17:32:04.448Z,94086.69
2018-09-09T17:47:08.507Z,94100.91
2018-09-09T18:02:12.783Z,94109.27
2018-09-09T18:17:16.833Z,94131.05
2018-09-09T18:32:20.797Z,94139.45
2018-09-09T18:47:24.723Z,94150.14
2018-09-09T19:02:30.140Z,94159.64
2018-09-09T19:17:34.084Z,94158.98
2018-09-09T19:32:37.959Z,94171.44
2018-09-09T19:47:41.948Z,94173.27
2018-09-09T20:02:45.946Z,94163.77
2018-09-09T20:17:49.895Z,94167.50
2018-09-09T20:32:53.899Z,94167.02
2018-09-09T20:47:57.810Z,94172.01
2018-09-09T21:03:02.164Z,94167.08
2018-09-09T21:18:06.091Z,94168.66
2018-09-09T21:33:10.013Z,94170.28
2018-09-09T21:48:14.006Z,94162.20
2018-09-09T22:03:17.868Z,94173.91
2018-09-09T22:18:21.735Z,94159.46
2018-09-09T22:33:25.643Z,94156.30
2018-09-09T22:48:29.802Z,94157.65
2018-09-09T23:03:33.694Z,94150.70
2018-09-09T23:18:37.531Z,94146.95
2018-09-09T23:33:41.345Z,94146.05
2018-09-09T23:48:46.219Z,94137.60
